Adelphi, Maryland
Current Conditions -  °F | °C
As of 6:30 PM on Wednesday 22 Oct 2014 (Local Time) from KCGS Reporting Station
Overcast Overcast  
Wind Chill: 55°   Ceiling: 4100
Heat Index: 55°   Visibility: 10mi
Dew Point: 48°   Wind: 8mph
Humidity: 77%   Direction: 320°NW
Pressure: 29.92"   Gusts: 18mph
Location:  39°N, 76.97°W
Report Text: KCGS 222230Z AUTO 32007G16KT 10SM OVC041 13/09 A2992 RMK AO1
Loading
Personal Weather Stations






























Interactive Weather Map New forecast layout! Learn more

10-Day Weather Forecast

Advertisements
Track Severe Weather on mobile